• Join FlightAware (Why Join?)
  • Login
  • US Flag 
06:48AM EDT


 

Airport Tracker/Info


-or-


 

Live Flight TrackerFlight Track Log ✈ N860BA ✈ 23-Aug-2013 ✈ KLZU - KFOK

Flight Track Log - Related Links

Times and Time Zones

All times are in EDT time to prevent confusion due to time zone crossing. See the N860BA flight status page for this flight to view local times or setup timezone preferences in your user account.

Time Position Orientation Groundspeed Altitude Reporting Facility
EDT Latitude Longitude Course Direction KTS MPH feet Rate Location/Type
05:34PM 33.9300 -83.9961 66° East 198 228 2,500  Level Atlanta Center
05:35PM 33.8672 -83.9689 160° South 233 268 4,400 2,400 Climbing Atlanta Center
05:36PM 33.8650 -83.8811 92° East 215 247 7,400 2,460 Climbing Atlanta Center
05:37PM 33.8858 -83.7861 75° East 249 287 9,400 1,980 Climbing Atlanta Center
05:38PM 33.9064 -83.6958 75° East 276 318 11,400 2,100 Climbing Atlanta Center
05:39PM 33.9311 -83.5881 75° East 314 361 13,600 1,260 Climbing Atlanta Center
05:40PM 33.7461 -83.3984 66° East  Level FlightAware Approximate
05:40PM 33.9600 -83.4728 73° East 342 394 14,000  Level Atlanta Center
05:41PM 33.9883 -83.3422 75° East 376 433 15,100 1,260 Climbing Atlanta Center
05:42PM 34.0169 -83.2092 75° East 401 461 16,600 1,440 Climbing Atlanta Center
05:43PM 34.0472 -83.0786 74° East 401 461 18,000 1,500 Climbing Atlanta Center
05:44PM 34.0775 -82.9478 74° East 401 461 19,600 1,500 Climbing Atlanta Center
05:45PM 34.1075 -82.8044 76° East 396 456 21,100 1,500 Climbing Atlanta Center
05:46PM 34.1353 -82.6736 76° East 396 456 22,600 1,500 Climbing Atlanta Center
05:47PM 34.1672 -82.5450 73° East 396 456 24,100 1,380 Climbing Atlanta Center
05:48PM 34.1967 -82.4139 75° East 396 456 25,400 1,260 Climbing Atlanta Center
05:49PM 34.2242 -82.2828 76° East 396 456 26,700 1,200 Climbing Atlanta Center
05:50PM 34.2556 -82.1539 74° East 396 456 27,800 960 Climbing Atlanta Center
05:51PM 34.3103 -82.0369 60° Northeast 396 456 28,700 900 Climbing Atlanta Center
05:52PM 34.3708 -81.9197 58° Northeast 396 456 29,600 900 Climbing Atlanta Center
05:53PM 34.4314 -81.8000 58° Northeast 401 461 30,500 900 Climbing Atlanta Center
05:54PM 34.4875 -81.6800 60° Northeast 406 467 31,400 720 Climbing Atlanta Center
05:55PM 34.5478 -81.5622 58° Northeast 412 474 32,000 600 Climbing Atlanta Center
05:56PM 34.6078 -81.4419 59° Northeast 412 474 32,600 600 Climbing Atlanta Center
05:57PM 34.6697 -81.3136 60° Northeast 419 482 33,200 540 Climbing Atlanta Center
05:58PM 34.7317 -81.1878 59° Northeast 432 497 33,700 540 Climbing Atlanta Center
05:59PM 34.7806 -81.0572 65° Northeast 432 497 34,300 540 Climbing Atlanta Center
06:00PM 34.8256 -80.9367 66° East 432 497 34,800 540 Climbing Atlanta Center
06:01PM 34.8764 -80.7981 66° East 432 497 35,400 600 Climbing Atlanta Center
06:02PM 34.9269 -80.6617 66° East 438 504 36,000 540 Climbing Atlanta Center
06:03PM 34.9794 -80.5228 65° Northeast 446 513 36,500 300 Climbing Atlanta Center
06:06PM 35.0994 -80.1944 66° East 448 516 37,000 120 Climbing Washington Center
06:07PM 35.1528 -80.0478 66° East 457 526 37,000  Level Washington Center
06:08PM 35.2061 -79.9058 65° Northeast 457 526 37,000  Level Washington Center
06:09PM 35.2614 -79.7561 66° East 464 534 37,000  Level Washington Center
06:10PM 35.3167 -79.6061 66° East 472 543 37,000  Level Washington Center
06:11PM 35.3697 -79.4536 67° East 477 549 37,000  Level Washington Center
06:12PM 35.4267 -79.3008 65° Northeast 483 556 37,000  Level Washington Center
06:13PM 35.4814 -79.1503 66° East 483 556 37,000  Level Washington Center
06:14PM 35.5317 -79.0019 67° East 478 550 37,000  Level Washington Center
06:15PM 35.5900 -78.8564 64° Northeast 471 542 37,000  Level Washington Center
06:16PM 35.6542 -78.7133 61° Northeast 477 549 37,000  Level Washington Center
06:17PM 35.7139 -78.5800 61° Northeast 483 556 37,000  Level Washington Center
06:18PM 35.7842 -78.4392 58° Northeast 483 556 37,000  Level Washington Center
06:19PM 35.8583 -78.3061 55° Northeast 478 550 37,000  Level Washington Center
06:20PM 35.9361 -78.1778 53° Northeast 468 539 37,000  Level Washington Center
06:21PM 36.0161 -78.0494 52° Northeast 468 539 37,000  Level Washington Center
06:22PM 36.0939 -77.9183 54° Northeast 468 539 37,000  Level Washington Center
06:23PM 36.1756 -77.7919 51° Northeast 473 544 37,000  Level Washington Center
06:24PM 36.2569 -77.6656 51° Northeast 473 544 37,000  Level Washington Center
06:25PM 36.3261 -77.5281 58° Northeast 468 539 37,000  Level Washington Center
06:26PM 36.3825 -77.3850 64° Northeast 461 531 37,000  Level Washington Center
06:27PM 36.4450 -77.2444 61° Northeast 461 531 37,000  Level Washington Center
06:28PM 36.5242 -77.1117 53° Northeast 466 536 37,000  Level Washington Center
06:29PM 36.6381 -77.0000 38° Northeast 459 528 37,000  Level Washington Center
06:30PM 36.7353 -76.8903 42° Northeast 465 535 37,000  Level Washington Center
06:31PM 36.8386 -76.7831 40° Northeast 470 541 37,000  Level Washington Center
06:32PM 36.9397 -76.6756 40° Northeast 470 541 37,000  Level Washington Center
06:33PM 37.0431 -76.5650 40° Northeast 476 548 37,000  Level Washington Center
06:34PM 37.1461 -76.4569 40° Northeast 476 548 37,000  Level Washington Center
06:35PM 37.2489 -76.3406 42° Northeast 482 555 37,000  Level Washington Center
06:36PM 37.3456 -76.2422 39° Northeast 489 563 37,000  Level Washington Center
06:37PM 37.4628 -76.1231 39° Northeast 489 563 37,000  Level Washington Center
06:38PM 37.5697 -76.0083 40° Northeast 489 563 37,000  Level Washington Center
06:39PM 37.6744 -75.8961 40° Northeast 489 563 37,000  Level Washington Center
06:40PM 37.7789 -75.7808 41° Northeast 489 563 37,000  Level Washington Center
06:41PM 37.8833 -75.6656 41° Northeast 489 563 37,000  Level Washington Center
06:42PM 37.9897 -75.5469 41° Northeast 494 568 37,000  Level Washington Center
06:43PM 38.1022 -75.4467 35° Northeast 494 568 37,000  Level Washington Center
06:44PM 38.2250 -75.3644 28° Northeast 494 568 37,000  Level Washington Center
06:45PM 38.3458 -75.2847 27° Northeast 488 562 37,000  Level Washington Center
06:46PM 38.4664 -75.2019 28° Northeast 488 562 37,000  Level Washington Center
06:47PM 38.5892 -75.1269 26° Northeast 488 562 37,000  Level Washington Center
06:48PM 38.7119 -75.0461 27° Northeast 488 562 37,000 -180 Level Washington Center
06:49PM 38.8386 -74.9681 26° Northeast 488 562 36,700 -1,440 Descending Washington Center
06:50PM 38.9675 -74.8842 27° Northeast 494 568 34,200 -2,940 Descending Washington Center
06:51PM 39.0981 -74.7892 29° Northeast 507 583 31,000 -2,940 Descending Washington Center
06:52PM 39.1992 -74.6436 48° Northeast 534 615 28,300 -2,460 Descending Washington Center
06:54PM 39.4208 -74.3019 50° Northeast 538 619 22,800 -2,160 Descending New York Center
06:55PM 39.5103 -74.1639 50° Northeast 507 583 21,000 -1,320 Descending New York Center
06:56PM 39.5956 -74.0281 51° Northeast 496 571 20,200 -1,260 Descending New York Center
06:57PM 39.6803 -73.8969 50° Northeast 484 557 18,500 -1,620 Descending New York Center
06:58PM 39.7586 -73.7708 51° Northeast 462 532 17,000 -660 Descending New York Center
06:59PM 39.8708 -73.5944 50° Northeast 436 502 16,900 -720 Descending Boston Center
07:01PM 39.9636 -73.4878 41° Northeast 431 496 15,200 -1,800 Descending Boston Center
07:02PM 40.0500 -73.3886 41° Northeast 426 490 13,300 -2,100 Descending Boston Center
07:02PM 40.1278 -73.2922 43° Northeast 400 460 11,100 -1,860 Descending Boston Center
07:04PM 40.1972 -73.2117 42° Northeast 363 418 9,700 -1,080 Descending Boston Center
07:04PM 40.2561 -73.1389 43° Northeast 318 366 9,000 -360 Descending Boston Center
07:05PM 40.3147 -73.0661 43° Northeast 296 341 9,000  Level Boston Center
07:07PM 40.3756 -72.9903 44° Northeast 291 335 9,000 -720 Level Boston Center
07:08PM 40.4342 -72.9200 42° Northeast 291 335 7,600 -720 Descending Boston Center
07:09PM 40.5066 -72.8001 52° Northeast  Level FlightAware Approximate
07:09PM 40.5333 -72.8000 52° Northeast 277 319 7,100  Level New York TRACON
07:10PM 40.5833 -72.7333 45° Northeast 278 320 6,700 -480 Descending New York TRACON
07:12PM 40.6967 -72.5667 40° Northeast  Level FlightAware Approximate
07:19PM 40.8333 -72.6167 246° West  Level FlightAware Approximate
07:20PM 40.8437 -72.6318 246° West  Level Estimated
07:21PM 40.8437 -72.6318 246° West  Level Estimated
07:22PM 40.8437 -72.6318 246° West  Level Estimated